Time;durP1;ratioP1;P1;durP2;ratioP2;P2;SDS_P1;SDS_P2;PMS_P1;PMS_P2;Temp;Humidity;BMP_temperature;BMP_pressure;BME280_temperature;BME280_humidity;BME280_pressure;Samples;Min_cycle;Max_cycle;Signal;HPM_P1;HPM_P2
2022/09/11 00:00:03;;;;;;;;;;;;;;;23.03;58.94;100840.34;5028467;28;4223;-63
2022/09/11 00:02:38;;;;;;;;;;;;;;;23.00;59.15;100831.59;5035137;28;4223;-63
2022/09/11 00:05:04;;;;;;;;;;;;;;;23.00;58.95;100843.16;5030081;28;4236;-63
2022/09/11 00:07:30;;;;;;;;;;;;;;;23.02;59.08;100841.72;5036200;28;4009;-63
2022/09/11 00:09:57;;;;;;;;;;;;;;;23.02;58.70;100838.84;5026756;28;5236;-63
2022/09/11 00:12:23;;;;;;;;;;;;;;;23.04;58.92;100844.69;5023482;28;5534;-63
2022/09/11 00:14:50;;;;;;;;;;;;;;;23.01;58.61;100846.78;5029798;28;4342;-63
2022/09/11 00:17:17;;;;;;;;;;;;;;;23.03;59.02;100849.00;5034616;28;4151;-63
2022/09/11 00:19:43;;;;;;;;;;;;;;;23.03;59.01;100840.34;5034401;28;5644;-63
2022/09/11 00:22:10;;;;;;;;;;;;;;;23.03;58.92;100843.97;5029179;28;4488;-63
2022/09/11 00:24:36;;;;;;;;;;;;;;;23.05;58.76;100843.31;5032821;28;5390;-63
2022/09/11 00:27:03;;;;;;;;;;;;;;;23.05;58.65;100849.06;5034818;28;5274;-63
2022/09/11 00:29:29;;;;;;;;;;;;;;;23.04;58.81;100851.22;5032613;28;5649;-62
2022/09/11 00:31:56;;;;;;;;;;;;;;;23.04;58.97;100854.09;5047278;28;4222;-62
2022/09/11 00:34:22;;;;;;;;;;;;;;;23.03;58.92;100849.00;5034411;28;4107;-61
2022/09/11 00:36:51;;;;;;;;;;;;;;;23.03;58.87;100851.91;5042878;28;4128;-61
2022/09/11 00:39:17;;;;;;;;;;;;;;;23.03;58.87;100851.91;5035171;28;4370;-61
2022/09/11 00:41:45;;;;;;;;;;;;;;;23.04;58.88;100847.59;5036556;28;4221;-61
2022/09/11 00:44:11;;;;;;;;;;;;;;;23.03;58.88;100851.91;5036461;28;4085;-61
2022/09/11 00:46:39;;;;;;;;;;;;;;;23.02;58.90;100838.84;5032612;28;4204;-61
2022/09/11 00:49:13;;;;;;;;;;;;;;;23.03;58.80;100851.91;5047930;28;4584;-62
2022/09/11 00:51:40;;;;;;;;;;;;;;;23.02;58.92;100851.16;5030306;28;5304;-62
2022/09/11 00:54:07;;;;;;;;;;;;;;;23.02;58.82;100848.28;5034462;28;4385;-61
2022/09/11 00:56:34;;;;;;;;;;;;;;;23.01;58.84;100852.56;5050305;28;4215;-61
2022/09/11 00:59:01;;;;;;;;;;;;;;;23.01;58.86;100852.56;5033673;28;4188;-61
2022/09/11 01:01:27;;;;;;;;;;;;;;;23.00;58.82;100854.72;5048651;28;4172;-62
2022/09/11 01:03:54;;;;;;;;;;;;;;;23.00;58.59;100853.97;5030807;28;5261;-62
2022/09/11 01:06:21;;;;;;;;;;;;;;;23.00;58.80;100860.47;5015048;28;4224;-62
2022/09/11 01:08:48;;;;;;;;;;;;;;;23.00;58.79;100854.72;5032841;28;5517;-62
2022/09/11 01:11:27;;;;;;;;;;;;;;;23.02;58.63;100856.19;5032933;28;4101;-62
2022/09/11 01:13:53;;;;;;;;;;;;;;;23.00;58.71;100860.47;5031911;28;4156;-62
2022/09/11 01:16:26;;;;;;;;;;;;;;;23.00;58.76;100869.16;5033758;28;5456;-62
2022/09/11 01:19:11;;;;;;;;;;;;;;;22.99;58.70;100856.09;5044193;28;5271;-62
2022/09/11 01:21:51;;;;;;;;;;;;;;;22.99;58.81;100856.09;5033079;28;4070;-62
2022/09/11 01:24:40;;;;;;;;;;;;;;;22.98;58.82;100857.50;5046533;28;6365;-62
2022/09/11 01:27:09;;;;;;;;;;;;;;;22.95;58.87;100853.06;5007139;28;4487;-62
2022/09/11 01:29:38;;;;;;;;;;;;;;;22.93;58.99;100866.66;5025691;28;4203;-62
2022/09/11 01:32:10;;;;;;;;;;;;;;;22.93;58.95;100855.88;5016630;28;4156;-62
2022/09/11 01:35:00;;;;;;;;;;;;;;;22.95;58.78;100853.06;5011812;28;4279;-62
2022/09/11 01:37:29;;;;;;;;;;;;;;;22.94;58.66;100854.44;5005299;28;4280;-62
2022/09/11 01:39:58;;;;;;;;;;;;;;;22.96;58.85;100860.31;5023292;28;5353;-62
2022/09/11 01:42:24;;;;;;;;;;;;;;;22.95;58.86;100864.63;5027324;28;4268;-62
2022/09/11 01:44:52;;;;;;;;;;;;;;;22.97;58.85;100861.03;5025668;28;5495;-63
2022/09/11 01:47:18;;;;;;;;;;;;;;;22.96;58.61;100853.78;5044802;28;4233;-62
2022/09/11 01:49:49;;;;;;;;;;;;;;;22.95;58.66;100858.84;5013820;28;4570;-62
2022/09/11 01:52:26;;;;;;;;;;;;;;;22.97;58.57;100856.00;5029127;28;4177;-62
2022/09/11 01:54:55;;;;;;;;;;;;;;;22.95;58.83;100870.38;5040523;28;4935;-62
2022/09/11 01:57:42;;;;;;;;;;;;;;;22.96;58.82;100866.06;5029508;28;4438;-62
2022/09/11 02:00:10;;;;;;;;;;;;;;;22.97;58.51;100867.53;5021485;28;4014;-62
2022/09/11 02:02:51;;;;;;;;;;;;;;;22.94;58.51;100868.91;5024134;28;6526;-62
2022/09/11 02:05:19;;;;;;;;;;;;;;;22.95;58.59;100858.84;5033093;28;4080;-62
2022/09/11 02:07:57;;;;;;;;;;;;;;;22.95;58.81;100858.06;5045098;28;4194;-62
2022/09/11 02:10:29;;;;;;;;;;;;;;;22.94;58.85;100860.22;5033721;28;4188;-62
2022/09/11 02:12:57;;;;;;;;;;;;;;;22.94;58.90;100862.38;5030814;28;4410;-62
2022/09/11 02:15:24;;;;;;;;;;;;;;;22.94;58.88;100863.13;5031468;28;4161;-62
2022/09/11 02:17:57;;;;;;;;;;;;;;;22.93;58.83;100870.31;5032266;28;5188;-62
2022/09/11 02:20:27;;;;;;;;;;;;;;;22.93;58.75;100876.09;5038584;28;4412;-62
2022/09/11 02:22:53;;;;;;;;;;;;;;;22.93;58.47;100878.97;5016873;28;4274;-62
2022/09/11 02:25:22;;;;;;;;;;;;;;;22.93;58.53;100878.22;5025157;28;4116;-62
2022/09/11 02:27:53;;;;;;;;;;;;;;;22.92;58.87;100874.59;5033350;28;4092;-62
2022/09/11 02:30:20;;;;;;;;;;;;;;;22.91;58.81;100870.22;5021292;28;4815;-62
2022/09/11 02:32:46;;;;;;;;;;;;;;;22.92;58.59;100873.84;5020995;28;4237;-61
2022/09/11 02:35:15;;;;;;;;;;;;;;;22.91;58.56;100863.72;5013761;28;5273;-62
2022/09/11 02:37:44;;;;;;;;;;;;;;;22.91;58.56;100864.47;5046262;28;4237;-62
2022/09/11 02:40:19;;;;;;;;;;;;;;;22.90;58.61;100871.63;5017397;28;4209;-61
2022/09/11 02:42:55;;;;;;;;;;;;;;;22.90;58.79;100877.41;5014738;28;5420;-62
2022/09/11 02:45:31;;;;;;;;;;;;;;;22.91;58.81;100875.28;5036992;28;6408;-61
2022/09/11 02:48:04;;;;;;;;;;;;;;;22.91;58.56;100884.66;5040445;28;4231;-62
2022/09/11 02:50:38;;;;;;;;;;;;;;;22.89;58.56;100883.88;5030111;28;4216;-61
2022/09/11 02:53:10;;;;;;;;;;;;;;;22.89;58.55;100884.59;5045834;28;4351;-61
2022/09/11 02:55:49;;;;;;;;;;;;;;;22.90;58.74;100886.06;5015214;28;4890;-61
2022/09/11 02:58:25;;;;;;;;;;;;;;;22.90;58.79;100891.84;5035893;28;4178;-62
2022/09/11 03:00:59;;;;;;;;;;;;;;;22.89;58.64;100890.38;5033862;28;4168;-62
2022/09/11 03:03:25;;;;;;;;;;;;;;;22.88;58.63;100888.88;5020491;28;4301;-61
2022/09/11 03:05:52;;;;;;;;;;;;;;;22.89;58.83;100887.47;5047638;28;4202;-62
2022/09/11 03:08:19;;;;;;;;;;;;;;;22.89;58.46;100896.16;5050689;28;4843;-62
2022/09/11 03:10:48;;;;;;;;;;;;;;;22.88;58.66;100888.88;5030548;28;4015;-62
2022/09/11 03:13:15;;;;;;;;;;;;;;;22.86;58.96;100894.59;5019344;28;5178;-62
2022/09/11 03:15:43;;;;;;;;;;;;;;;22.87;58.61;100901.84;5033080;28;4217;-61
2022/09/11 03:18:14;;;;;;;;;;;;;;;22.88;58.52;100906.19;5033396;28;4290;-61
2022/09/11 03:20:45;;;;;;;;;;;;;;;22.88;58.52;100903.31;5028865;28;4195;-62
2022/09/11 03:23:12;;;;;;;;;;;;;;;22.87;58.69;100910.50;5034731;28;4086;-62
2022/09/11 03:25:39;;;;;;;;;;;;;;;22.83;58.89;100909.63;5036329;28;4152;-63
2022/09/11 03:28:06;;;;;;;;;;;;;;;22.85;59.09;100913.31;5047563;28;5240;-64
2022/09/11 03:34:16;;;;;;;;;;;;;;;22.81;58.29;100930.47;5023425;28;5538;-64
2022/09/11 03:36:44;;;;;;;;;;;;;;;22.83;58.42;100933.44;5033182;28;4255;-64
2022/09/11 03:39:12;;;;;;;;;;;;;;;22.85;58.40;100938.56;5040940;28;4280;-64
2022/09/11 03:41:38;;;;;;;;;;;;;;;22.84;58.45;100946.50;5036450;28;4244;-64
2022/09/11 03:44:05;;;;;;;;;;;;;;;22.85;58.38;100945.06;5035690;28;4582;-64
2022/09/11 03:46:31;;;;;;;;;;;;;;;22.86;58.45;100955.22;5036156;28;5364;-64
2022/09/11 03:48:58;;;;;;;;;;;;;;;22.86;58.56;100957.34;5033322;28;4100;-64
2022/09/11 03:51:27;;;;;;;;;;;;;;;22.86;58.42;100957.34;5033062;28;4233;-64
2022/09/11 03:53:54;;;;;;;;;;;;;;;22.86;58.47;100963.13;5050479;28;5387;-63
2022/09/11 03:56:21;;;;;;;;;;;;;;;22.85;58.60;100950.84;5040040;28;4239;-64
2022/09/11 03:58:47;;;;;;;;;;;;;;;22.85;58.81;100959.50;5047342;28;4126;-64
2022/09/11 04:01:14;;;;;;;;;;;;;;;22.85;58.50;100959.50;5033337;28;4154;-64
2022/09/11 04:03:41;;;;;;;;;;;;;;;22.85;58.45;100953.75;5044930;28;5352;-64
2022/09/11 04:06:13;;;;;;;;;;;;;;;22.84;58.52;100960.94;5022897;28;4265;-63
2022/09/11 04:08:40;;;;;;;;;;;;;;;22.84;58.68;100963.06;5015833;28;4248;-63
2022/09/11 04:11:10;;;;;;;;;;;;;;;22.84;58.50;100963.81;5018687;28;4200;-64
2022/09/11 04:13:37;;;;;;;;;;;;;;;22.84;58.50;100963.81;5011280;28;4090;-64
2022/09/11 04:16:12;;;;;;;;;;;;;;;22.84;58.46;100971.72;5015723;28;4199;-63
2022/09/11 04:18:40;;;;;;;;;;;;;;;22.83;58.70;100968.09;5024716;28;4108;-64
2022/09/11 04:21:07;;;;;;;;;;;;;;;22.83;58.58;100959.44;5014887;28;4163;-63
2022/09/11 04:23:33;;;;;;;;;;;;;;;22.82;58.44;100966.63;5016060;28;4472;-64
2022/09/11 04:26:00;;;;;;;;;;;;;;;22.83;58.41;100967.34;5022966;28;4235;-64
2022/09/11 04:28:27;;;;;;;;;;;;;;;22.83;58.74;100968.09;5029075;28;4084;-63
2022/09/11 04:30:53;;;;;;;;;;;;;;;22.82;58.57;100960.84;5014566;28;4042;-64
2022/09/11 04:33:20;;;;;;;;;;;;;;;22.82;58.77;100969.50;5014897;28;4411;-63
2022/09/11 04:35:47;;;;;;;;;;;;;;;22.82;58.72;100975.28;5015559;28;4239;-63
2022/09/11 04:38:14;;;;;;;;;;;;;;;22.82;58.47;100981.06;5017373;28;4118;-64
2022/09/11 04:40:40;;;;;;;;;;;;;;;22.81;58.51;100982.44;5020358;28;4279;-64
2022/09/11 04:43:06;;;;;;;;;;;;;;;22.81;58.41;100979.56;5018776;28;5584;-64
2022/09/11 04:45:35;;;;;;;;;;;;;;;22.81;58.39;100988.22;5028035;28;4085;-63
2022/09/11 04:48:03;;;;;;;;;;;;;;;22.79;58.94;100986.03;5028011;28;4134;-64
2022/09/11 04:50:30;;;;;;;;;;;;;;;22.79;58.63;100979.47;5010135;28;4212;-64
2022/09/11 04:53:11;;;;;;;;;;;;;;;22.80;58.72;100986.75;5013315;28;4174;-64
2022/09/11 04:55:37;;;;;;;;;;;;;;;22.81;58.72;100988.22;5019063;28;5448;-63
2022/09/11 04:58:04;;;;;;;;;;;;;;;22.79;58.78;100976.59;5030120;28;5323;-63
2022/09/11 05:00:32;;;;;;;;;;;;;;;22.80;58.56;100972.31;5012678;28;4056;-64
2022/09/11 05:02:58;;;;;;;;;;;;;;;22.79;58.45;100982.38;5013921;28;4172;-64
2022/09/11 05:05:25;;;;;;;;;;;;;;;22.79;58.61;100985.25;5019215;28;5459;-64
2022/09/11 05:07:51;;;;;;;;;;;;;;;22.79;58.56;100991.03;5012890;28;4166;-64
2022/09/11 05:10:19;;;;;;;;;;;;;;;22.78;58.59;100987.41;5014564;28;3995;-63
2022/09/11 05:12:45;;;;;;;;;;;;;;;22.78;58.59;100990.28;5011673;28;4257;-63
2022/09/11 05:15:12;;;;;;;;;;;;;;;22.78;58.48;100998.94;5009544;28;4198;-63
2022/09/11 05:17:39;;;;;;;;;;;;;;;22.79;58.62;100991.03;5009859;28;5364;-63
2022/09/11 05:20:08;;;;;;;;;;;;;;;22.76;58.71;100993.09;5027979;28;5425;-63
2022/09/11 05:22:37;;;;;;;;;;;;;;;22.77;58.69;100996.75;5010288;28;4092;-63
2022/09/11 05:25:03;;;;;;;;;;;;;;;22.78;58.49;101001.09;5015144;28;4072;-63
2022/09/11 05:27:30;;;;;;;;;;;;;;;22.76;58.61;100990.22;5014082;28;4252;-63
2022/09/11 05:29:56;;;;;;;;;;;;;;;22.77;58.79;100990.97;5016792;28;4243;-64
2022/09/11 05:32:23;;;;;;;;;;;;;;;22.77;58.77;101003.25;5016670;28;5197;-64
2022/09/11 05:34:49;;;;;;;;;;;;;;;22.77;58.68;100999.63;5015089;28;5295;-63
2022/09/11 05:37:18;;;;;;;;;;;;;;;22.77;58.79;101002.53;5024412;28;5353;-63
2022/09/11 05:39:46;;;;;;;;;;;;;;;22.77;58.48;101011.19;5040415;28;5391;-61
2022/09/11 05:42:14;;;;;;;;;;;;;;;22.67;58.57;101010.78;5050776;28;4151;-61
2022/09/11 05:44:46;;;;;;;;;;;;;;;22.52;59.27;101013.09;5041915;28;4224;-59
2022/09/11 05:47:13;;;;;;;;;;;;;;;22.65;58.55;101013.56;5032201;28;4538;-59
2022/09/11 05:49:41;;;;;;;;;;;;;;;22.69;58.77;101017.38;5024229;28;4301;-59
2022/09/11 05:52:09;;;;;;;;;;;;;;;22.73;58.63;101029.06;5031006;28;4231;-59
2022/09/11 05:54:35;;;;;;;;;;;;;;;22.74;58.49;101029.81;5029188;28;5354;-59
2022/09/11 05:57:03;;;;;;;;;;;;;;;22.75;58.59;101034.94;5044713;28;5486;-59
2022/09/11 05:59:35;;;;;;;;;;;;;;;22.74;58.38;101042.09;5044717;28;4319;-59
2022/09/11 06:02:01;;;;;;;;;;;;;;;22.76;58.40;101047.94;5024610;28;4224;-59
2022/09/11 06:04:39;;;;;;;;;;;;;;;22.76;58.33;101047.94;5040854;28;4300;-59
2022/09/11 06:07:06;;;;;;;;;;;;;;;22.77;58.59;101057.38;5033306;28;4351;-59
2022/09/11 06:09:33;;;;;;;;;;;;;;;22.76;58.64;101055.88;5030427;28;4175;-59
2022/09/11 06:12:00;;;;;;;;;;;;;;;22.77;58.75;101063.16;5028035;28;4171;-59
2022/09/11 06:14:28;;;;;;;;;;;;;;;22.75;58.86;101055.13;5027474;28;4106;-58
2022/09/11 06:16:55;;;;;;;;;;;;;;;22.75;58.94;101065.94;5031302;28;4235;-59
2022/09/11 06:19:23;;;;;;;;;;;;;;;22.76;58.79;101064.53;5032121;28;5298;-59
2022/09/11 06:21:50;;;;;;;;;;;;;;;22.77;58.82;101068.94;5045753;28;4209;-59
2022/09/11 06:24:27;;;;;;;;;;;;;;;22.76;58.63;101068.16;5041063;28;4168;-59
2022/09/11 06:26:54;;;;;;;;;;;;;;;22.77;58.60;101077.59;5042838;28;5340;-59
2022/09/11 06:29:22;;;;;;;;;;;;;;;22.75;58.80;101081.13;5047712;28;4051;-59
2022/09/11 06:31:50;;;;;;;;;;;;;;;22.73;58.98;101078.16;5046593;28;4275;-59
2022/09/11 06:34:19;;;;;;;;;;;;;;;22.75;58.48;101077.50;5026945;28;4229;-60
2022/09/11 06:36:47;;;;;;;;;;;;;;;22.76;58.64;101087.63;5040129;28;4072;-59
2022/09/11 06:39:19;;;;;;;;;;;;;;;22.76;58.61;101078.97;5011630;28;5430;-59
2022/09/11 06:41:45;;;;;;;;;;;;;;;22.76;58.37;101084.75;5011360;28;5375;-59
2022/09/11 06:44:14;;;;;;;;;;;;;;;22.76;58.42;101094.16;5022900;28;4186;-59
2022/09/11 06:46:40;;;;;;;;;;;;;;;22.76;58.40;101093.41;5010182;28;4177;-59
2022/09/11 06:49:08;;;;;;;;;;;;;;;22.74;58.76;101093.31;5023419;28;4732;-59
2022/09/11 06:51:54;;;;;;;;;;;;;;;22.68;59.02;101096.72;5010748;28;4197;-58
2022/09/11 06:54:21;;;;;;;;;;;;;;;22.71;58.60;101094.66;5020183;28;4168;-59
2022/09/11 06:56:47;;;;;;;;;;;;;;;22.73;58.77;101086.06;5027727;28;5992;-59
2022/09/11 06:59:14;;;;;;;;;;;;;;;22.76;58.79;101093.41;5031337;28;4181;-59
2022/09/11 07:01:41;;;;;;;;;;;;;;;22.74;58.68;101088.28;5014699;28;4260;-59
2022/09/11 07:04:09;;;;;;;;;;;;;;;22.75;58.40;101084.00;5028737;28;5412;-59
2022/09/11 07:06:37;;;;;;;;;;;;;;;22.76;58.60;101085.47;5009254;28;4379;-59
2022/09/11 07:09:03;;;;;;;;;;;;;;;22.75;58.56;101095.56;5045895;28;4194;-59
2022/09/11 07:11:42;;;;;;;;;;;;;;;22.75;58.33;101089.78;5011083;28;4273;-59
2022/09/11 07:14:09;;;;;;;;;;;;;;;22.75;58.59;101089.03;5048321;28;4424;-59
2022/09/11 07:16:38;;;;;;;;;;;;;;;22.75;58.38;101089.03;5045376;28;4638;-59
2022/09/11 07:19:09;;;;;;;;;;;;;;;22.75;58.63;101095.56;5049356;28;4474;-59
2022/09/11 07:21:37;;;;;;;;;;;;;;;22.75;58.41;101106.38;5048798;28;4151;-59
2022/09/11 07:24:04;;;;;;;;;;;;;;;22.73;58.47;101097.63;5033246;28;4203;-59
2022/09/11 07:26:35;;;;;;;;;;;;;;;22.73;58.80;101098.34;5031641;28;5283;-59
2022/09/11 07:29:07;;;;;;;;;;;;;;;22.75;58.60;101103.47;5041463;28;4188;-59
2022/09/11 07:31:33;;;;;;;;;;;;;;;22.75;58.48;101100.59;5053608;28;4251;-58
2022/09/11 07:34:01;;;;;;;;;;;;;;;22.74;58.64;101105.59;5043831;28;4168;-58
2022/09/11 07:36:29;;;;;;;;;;;;;;;22.75;58.42;101112.16;5027567;28;4251;-59
2022/09/11 07:38:56;;;;;;;;;;;;;;;22.74;58.30;101116.41;5030278;28;4192;-59
2022/09/11 07:41:30;;;;;;;;;;;;;;;22.74;58.71;101107.75;5048791;28;4038;-58
2022/09/11 07:44:02;;;;;;;;;;;;;;;22.75;58.37;101112.16;5028624;28;4056;-58
2022/09/11 07:46:31;;;;;;;;;;;;;;;22.75;58.47;101112.16;5044882;28;4187;-58
2022/09/11 07:49:02;;;;;;;;;;;;;;;22.75;58.46;101112.88;5024937;28;4176;-58
2022/09/11 07:51:29;;;;;;;;;;;;;;;22.75;58.27;101106.38;5040621;28;4149;-59
2022/09/11 07:54:00;;;;;;;;;;;;;;;22.75;58.38;101112.88;5041224;28;4140;-60
2022/09/11 07:56:30;;;;;;;;;;;;;;;22.75;58.55;101112.16;5036744;28;4264;-59
2022/09/11 07:59:00;;;;;;;;;;;;;;;22.72;58.45;101117.09;5030413;28;5521;-66
2022/09/11 08:01:28;;;;;;;;;;;;;;;22.72;58.94;101113.44;5045089;28;4128;-57
2022/09/11 08:03:57;;;;;;;;;;;;;;;22.73;59.24;101114.94;5032841;28;5256;-58
2022/09/11 08:06:26;;;;;;;;;;;;;;;22.75;58.79;101120.81;5052923;28;4563;-57
2022/09/11 08:08:53;;;;;;;;;;;;;;;22.68;59.40;101121.97;5033953;28;4522;-59
2022/09/11 08:11:20;;;;;;;;;;;;;;;22.71;59.08;101124.25;5048922;28;4269;-58
2022/09/11 08:13:49;;;;;;;;;;;;;;;22.75;58.66;101130.19;5014208;28;4003;-59
2022/09/11 08:16:18;;;;;;;;;;;;;;;22.71;59.05;101129.28;5045970;28;4550;-58
2022/09/11 08:18:44;;;;;;;;;;;;;;;22.70;59.17;101140.09;5014342;28;4585;-58
2022/09/11 08:21:12;;;;;;;;;;;;;;;22.54;59.38;101142.28;5021966;28;5265;-61
2022/09/11 08:23:39;;;;;;;;;;;;;;;22.53;59.39;101132.91;5022450;28;5950;-60
2022/09/11 08:26:11;;;;;;;;;;;;;;;22.44;59.87;101142.63;5016172;28;5303;-60
2022/09/11 08:28:41;;;;;;;;;;;;;;;22.37;60.35;101149.53;5018233;28;5697;-60
2022/09/11 08:31:08;;;;;;;;;;;;;;;22.53;59.84;101146.59;5048638;28;5714;-59
2022/09/11 08:33:35;;;;;;;;;;;;;;;22.35;60.54;101146.56;5013836;28;5672;-59
2022/09/11 08:36:05;;;;;;;;;;;;;;;22.47;60.40;101147.09;5015007;28;4478;-59
2022/09/11 08:38:32;;;;;;;;;;;;;;;22.45;60.03;101149.88;5047553;28;4053;-59
2022/09/11 08:41:06;;;;;;;;;;;;;;;22.34;60.33;101150.84;5013153;28;4246;-59
2022/09/11 08:43:34;;;;;;;;;;;;;;;22.29;60.19;101161.47;5021694;28;5647;-59
2022/09/11 08:46:03;;;;;;;;;;;;;;;22.36;60.33;101159.59;5025580;28;5574;-62
2022/09/11 08:48:34;;;;;;;;;;;;;;;22.39;59.77;101158.28;5030553;28;3996;-60
2022/09/11 08:51:00;;;;;;;;;;;;;;;22.54;59.38;101154.59;5044788;28;4575;-59
2022/09/11 08:53:29;;;;;;;;;;;;;;;22.46;59.64;101159.28;5009467;28;4093;-59
2022/09/11 08:55:59;;;;;;;;;;;;;;;22.29;60.21;101161.47;5011489;28;5008;-59
2022/09/11 08:58:32;;;;;;;;;;;;;;;22.38;60.02;101160.44;5022380;28;4617;-59
2022/09/11 09:01:12;;;;;;;;;;;;;;;22.28;60.37;101156.34;5010143;28;5667;-59
2022/09/11 09:03:43;;;;;;;;;;;;;;;22.21;60.51;101160.34;5046610;28;5469;-59
2022/09/11 09:06:20;;;;;;;;;;;;;;;22.38;59.86;101156.81;5024878;28;4174;-59
2022/09/11 09:09:09;;;;;;;;;;;;;;;22.36;60.29;101156.72;5034532;28;4177;-59
2022/09/11 09:11:41;;;;;;;;;;;;;;;22.56;59.60;101154.69;5009918;28;6025;-59
2022/09/11 09:14:28;;;;;;;;;;;;;;;22.34;60.21;101159.50;5048360;28;4259;-59
2022/09/11 09:16:57;;;;;;;;;;;;;;;22.33;60.44;101160.88;5035375;28;5672;-59
2022/09/11 09:19:33;;;;;;;;;;;;;;;22.44;59.84;101159.19;5039459;28;4674;-59
2022/09/11 09:22:02;;;;;;;;;;;;;;;22.44;59.23;101157.03;5031469;28;5208;-59
2022/09/11 09:24:31;;;;;;;;;;;;;;;22.45;59.06;101158.53;5028214;28;4917;-58
2022/09/11 09:26:58;;;;;;;;;;;;;;;22.31;59.81;101173.09;5008632;28;4653;-58
2022/09/11 09:29:27;;;;;;;;;;;;;;;22.33;59.71;101172.44;5030915;28;4574;-58
2022/09/11 09:32:00;;;;;;;;;;;;;;;22.43;59.23;101167.13;5017258;28;5694;-59
2022/09/11 09:34:29;;;;;;;;;;;;;;;22.50;59.07;101162.34;5046697;28;4463;-59
2022/09/11 09:37:03;;;;;;;;;;;;;;;22.41;59.60;101169.91;5035542;28;4344;-59
2022/09/11 09:39:29;;;;;;;;;;;;;;;22.36;59.37;101165.38;5032638;28;4198;-59
2022/09/11 09:42:04;;;;;;;;;;;;;;;22.36;59.45;101165.38;5043470;28;6288;-59
2022/09/11 09:44:50;;;;;;;;;;;;;;;22.41;59.37;101167.03;5030375;28;4113;-59
2022/09/11 09:47:16;;;;;;;;;;;;;;;22.37;59.12;101172.63;5029365;28;4039;-59
2022/09/11 09:49:42;;;;;;;;;;;;;;;22.45;58.76;101167.19;5048727;28;4122;-59
2022/09/11 09:52:15;;;;;;;;;;;;;;;22.43;59.02;101175.78;5016924;28;5360;-59
2022/09/11 09:54:42;;;;;;;;;;;;;;;22.45;58.76;101172.97;5016069;28;5424;-59
2022/09/11 09:57:09;;;;;;;;;;;;;;;22.41;58.83;101177.81;5015488;28;4211;-59
2022/09/11 09:59:39;;;;;;;;;;;;;;;22.34;59.07;101168.91;5029149;28;6327;-59
2022/09/11 10:02:06;;;;;;;;;;;;;;;22.35;59.45;101163.88;5016983;28;4557;-59
2022/09/11 10:04:33;;;;;;;;;;;;;;;22.44;58.73;101173.63;5016826;28;4581;-59
2022/09/11 10:07:12;;;;;;;;;;;;;;;22.37;59.17;101170.47;5013040;28;5374;-59
2022/09/11 10:09:44;;;;;;;;;;;;;;;22.35;59.07;101175.41;5016835;28;5430;-59
2022/09/11 10:12:20;;;;;;;;;;;;;;;22.37;59.20;101184.88;5019696;28;4356;-59
2022/09/11 10:14:50;;;;;;;;;;;;;;;22.39;58.83;101175.59;5046376;28;4674;-59
2022/09/11 10:17:18;;;;;;;;;;;;;;;22.37;58.95;101169.72;5032831;28;5227;-60
2022/09/11 10:19:45;;;;;;;;;;;;;;;22.39;59.08;101181.34;5035049;28;4603;-59
2022/09/11 10:22:27;;;;;;;;;;;;;;;22.29;59.49;101181.66;5049442;28;4266;-59
2022/09/11 10:25:10;;;;;;;;;;;;;;;22.33;59.42;101178.19;5017160;28;4377;-59
2022/09/11 10:27:51;;;;;;;;;;;;;;;22.36;59.19;101171.13;5033720;28;4101;-59
2022/09/11 10:30:30;;;;;;;;;;;;;;;22.38;59.13;101174.13;5049979;28;5649;-59
2022/09/11 10:32:57;;;;;;;;;;;;;;;22.39;59.11;101175.59;5038027;28;4056;-60
2022/09/11 10:35:28;;;;;;;;;;;;;;;22.38;58.66;101182.78;5038268;28;4165;-59
2022/09/11 10:38:07;;;;;;;;;;;;;;;22.36;58.61;101182.69;5028286;28;4581;-58
2022/09/11 10:40:34;;;;;;;;;;;;;;;22.34;58.66;101191.97;5035254;28;4265;-58
2022/09/11 10:43:00;;;;;;;;;;;;;;;22.33;59.07;101189.75;5053070;28;4128;-59
2022/09/11 10:45:26;;;;;;;;;;;;;;;22.31;58.80;101189.66;5034415;28;4147;-58
2022/09/11 10:47:53;;;;;;;;;;;;;;;22.33;58.77;101183.97;5048160;28;5492;-59
2022/09/11 10:50:20;;;;;;;;;;;;;;;22.39;58.82;101181.34;5032497;28;4207;-58
2022/09/11 10:53:02;;;;;;;;;;;;;;;22.41;58.73;101183.59;5038308;28;4557;-59
2022/09/11 10:55:29;;;;;;;;;;;;;;;22.41;58.57;101189.38;5048228;28;5572;-59
2022/09/11 10:57:58;;;;;;;;;;;;;;;22.42;58.75;101187.97;5049731;28;5314;-59
2022/09/11 11:00:26;;;;;;;;;;;;;;;22.42;58.96;101194.47;5049783;28;4035;-59
2022/09/11 11:02:55;;;;;;;;;;;;;;;22.42;58.67;101194.47;5025273;28;5612;-59
2022/09/11 11:05:23;;;;;;;;;;;;;;;22.42;58.79;101191.56;5016034;28;4183;-59
2022/09/11 11:08:05;;;;;;;;;;;;;;;22.43;58.49;101193.09;5012193;28;5412;-59
2022/09/11 11:10:38;;;;;;;;;;;;;;;22.47;58.47;101187.50;5028764;28;6000;-58
2022/09/11 11:13:09;;;;;;;;;;;;;;;22.46;58.56;101186.00;5027719;28;4256;-59
2022/09/11 11:15:39;;;;;;;;;;;;;;;22.46;58.76;101180.22;5051713;28;5586;-59
2022/09/11 11:18:17;;;;;;;;;;;;;;;22.46;58.47;101180.22;5049691;28;5738;-59
2022/09/11 11:20:51;;;;;;;;;;;;;;;22.43;58.30;101181.53;5050096;28;4218;-64
2022/09/11 11:23:44;;;;;;;;;;;;;;;22.63;57.99;101175.13;5042237;28;4223;-64
2022/09/11 11:26:10;;;;;;;;;;;;;;;22.73;58.03;101184.22;5045646;28;5611;-62
2022/09/11 11:28:39;;;;;;;;;;;;;;;22.89;57.60;101176.22;5033013;28;5150;-62
2022/09/11 11:31:26;;;;;;;;;;;;;;;22.94;57.28;101180.75;5026372;28;4437;-61
2022/09/11 11:34:01;;;;;;;;;;;;;;;22.97;56.83;101190.25;5027089;28;4713;-62
2022/09/11 11:36:33;;;;;;;;;;;;;;;22.96;56.75;101195.28;5020644;28;5667;-60
2022/09/11 11:39:00;;;;;;;;;;;;;;;23.05;56.54;101195.66;5031492;28;4576;-61
2022/09/11 11:41:34;;;;;;;;;;;;;;;22.98;56.24;101198.28;5036366;28;4307;-60
2022/09/11 11:44:01;;;;;;;;;;;;;;;22.98;56.05;101192.50;5046355;28;5455;-62
2022/09/11 11:46:29;;;;;;;;;;;;;;;22.95;56.48;101193.06;5023664;28;5682;-61
2022/09/11 11:48:57;;;;;;;;;;;;;;;22.96;56.27;101194.56;5035359;28;5872;-64
2022/09/11 11:51:28;;;;;;;;;;;;;;;22.97;56.78;101191.00;5043098;28;5720;-61
2022/09/11 11:54:02;;;;;;;;;;;;;;;23.08;56.56;101194.34;5035782;28;5525;-61
2022/09/11 11:56:34;;;;;;;;;;;;;;;22.91;57.20;101193.66;5051023;28;4143;-62
2022/09/11 11:59:03;;;;;;;;;;;;;;;23.04;57.21;101191.28;5035207;28;4254;-62
2022/09/11 12:01:39;;;;;;;;;;;;;;;23.08;57.72;101195.06;5039585;28;4019;-63
2022/09/11 12:04:25;;;;;;;;;;;;;;;23.12;58.37;101195.25;5050071;28;5209;-61
2022/09/11 12:06:51;;;;;;;;;;;;;;;23.15;57.29;101198.94;5037065;28;4861;-64
2022/09/11 12:09:18;;;;;;;;;;;;;;;23.20;56.75;101195.56;5034058;28;4223;-62
2022/09/11 12:11:45;;;;;;;;;;;;;;;23.14;56.84;101197.47;5048714;28;4184;-62
2022/09/11 12:14:25;;;;;;;;;;;;;;;23.12;57.33;101192.34;5032228;28;4993;-61
2022/09/11 12:16:51;;;;;;;;;;;;;;;23.05;57.13;101195.66;5014020;28;4535;-61
2022/09/11 12:19:18;;;;;;;;;;;;;;;22.98;57.14;101198.28;5012889;28;4040;-62
2022/09/11 12:21:51;;;;;;;;;;;;;;;23.15;56.53;101204.72;5013930;28;4546;-62
2022/09/11 12:24:18;;;;;;;;;;;;;;;23.07;56.56;101198.63;5036679;28;4265;-63
2022/09/11 12:26:45;;;;;;;;;;;;;;;23.18;56.45;101197.63;5044182;28;5548;-64
2022/09/11 12:29:11;;;;;;;;;;;;;;;23.31;56.13;101202.47;5017417;28;4110;-62
2022/09/11 12:31:48;;;;;;;;;;;;;;;23.28;55.98;101200.94;5017585;28;5737;-62
2022/09/11 12:34:17;;;;;;;;;;;;;;;23.24;55.46;101200.75;5005885;28;4077;-62
2022/09/11 12:36:53;;;;;;;;;;;;;;;23.21;56.31;101207.88;5010017;28;3995;-63
2022/09/11 12:39:23;;;;;;;;;;;;;;;23.24;55.87;101206.53;5036298;28;4397;-61
2022/09/11 12:41:50;;;;;;;;;;;;;;;23.14;56.17;101214.81;5036492;28;4061;-62
2022/09/11 12:44:42;;;;;;;;;;;;;;;23.03;57.02;101212.91;5032037;28;4268;-65
2022/09/11 12:47:10;;;;;;;;;;;;;;;23.08;57.83;101223.22;5017826;28;4037;-64
2022/09/11 12:49:36;;;;;;;;;;;;;;;23.00;58.90;101224.38;5035582;28;4233;-64
2022/09/11 12:52:02;;;;;;;;;;;;;;;22.97;58.41;101216.97;5057289;28;4158;-67
2022/09/11 12:54:38;;;;;;;;;;;;;;;21.53;62.94;101217.84;5044823;28;4110;-63
2022/09/11 12:57:05;;;;;;;;;;;;;;;22.53;61.62;101210.81;5046987;28;3936;-88
2022/09/11 12:59:37;;;;;;;;;;;;;;;22.73;60.73;101208.06;5049007;28;4148;-75
2022/09/11 13:02:04;;;;;;;;;;;;;;;22.70;60.93;101197.06;5040165;28;4307;-69
2022/09/11 13:04:31;;;;;;;;;;;;;;;22.71;61.47;101205.09;5045350;28;4096;-65